createdAt,value
2022-09-02T00:02:24.955Z,4.70
2022-09-02T00:07:26.856Z,4.73
2022-09-02T00:12:28.339Z,4.85
2022-09-02T00:17:30.155Z,4.47
2022-09-02T00:22:31.958Z,4.60
2022-09-02T00:27:33.448Z,4.45
2022-09-02T00:32:35.223Z,4.32
2022-09-02T00:37:37.003Z,4.17
2022-09-02T00:42:39.030Z,4.32
2022-09-02T00:47:40.955Z,4.10
2022-09-02T00:52:54.197Z,4.30
2022-09-02T00:58:05.391Z,4.20
2022-09-02T01:03:12.991Z,4.50
2022-09-02T01:08:19.947Z,4.70
2022-09-02T01:13:25.016Z,4.50
2022-09-02T01:18:29.371Z,4.55
2022-09-02T01:23:34.679Z,4.03
2022-09-02T01:28:36.664Z,4.60
2022-09-02T01:33:38.383Z,4.50
2022-09-02T01:38:40.253Z,4.65
2022-09-02T01:43:42.299Z,4.70
2022-09-02T01:48:46.730Z,4.50
2022-09-02T01:53:48.891Z,4.38
2022-09-02T01:58:50.656Z,4.50
2022-09-02T02:03:54.564Z,4.40
2022-09-02T02:08:56.360Z,4.38
2022-09-02T02:14:00.802Z,4.70
2022-09-02T02:19:02.279Z,4.70
2022-09-02T02:24:04.125Z,4.50
2022-09-02T02:29:07.147Z,4.72
2022-09-02T02:34:11.002Z,4.20
2022-09-02T02:39:13.048Z,4.33
2022-09-02T02:44:14.971Z,4.20
2022-09-02T02:49:19.292Z,4.40
2022-09-02T02:54:24.091Z,4.50
2022-09-02T02:59:37.177Z,4.78
2022-09-02T03:04:39.775Z,4.20
2022-09-02T03:09:41.500Z,4.80
2022-09-02T03:14:43.062Z,4.32
2022-09-02T03:19:44.390Z,4.20
2022-09-02T03:24:46.079Z,4.03
2022-09-02T03:29:47.373Z,4.32
2022-09-02T03:34:48.661Z,4.75
2022-09-02T03:39:50.125Z,4.10
2022-09-02T03:44:51.417Z,4.33
2022-09-02T03:49:52.769Z,3.85
2022-09-02T03:54:54.113Z,4.07
2022-09-02T03:59:57.606Z,3.90
2022-09-02T04:04:58.913Z,3.75
2022-09-02T04:10:00.733Z,3.90
2022-09-02T04:15:03.431Z,3.40
2022-09-02T04:20:42.549Z,4.00
2022-09-02T04:25:44.292Z,3.72
2022-09-02T04:30:45.581Z,3.50
2022-09-02T04:35:49.016Z,3.40
2022-09-02T04:40:50.428Z,3.47
2022-09-02T04:45:51.833Z,3.87
2022-09-02T04:50:53.531Z,3.72
2022-09-02T04:55:57.934Z,3.47
2022-09-02T05:00:59.566Z,3.40
2022-09-02T05:06:01.756Z,3.47
2022-09-02T05:11:10.223Z,3.83
2022-09-02T05:16:14.918Z,3.70
2022-09-02T05:21:16.669Z,3.65
2022-09-02T05:26:18.260Z,3.60
2022-09-02T05:31:20.214Z,3.90
2022-09-02T05:36:22.177Z,3.75
2022-09-02T05:41:24.250Z,3.40
2022-09-02T05:46:32.968Z,3.50
2022-09-02T05:51:34.247Z,3.72
2022-09-02T05:56:37.461Z,3.58
2022-09-02T06:01:39.328Z,3.30
2022-09-02T06:06:42.427Z,3.10
2022-09-02T06:11:49.761Z,3.42
2022-09-02T06:16:51.942Z,3.30
2022-09-02T06:21:54.751Z,3.40
2022-09-02T06:26:56.932Z,3.15
2022-09-02T06:31:58.949Z,3.40
2022-09-02T06:37:00.434Z,2.92
2022-09-02T06:42:02.238Z,3.90
2022-09-02T06:47:03.961Z,2.90
2022-09-02T06:52:06.250Z,3.00
2022-09-02T06:57:08.074Z,3.00
2022-09-02T07:02:12.609Z,2.78
2022-09-02T07:07:14.484Z,2.50
2022-09-02T07:12:17.297Z,2.60
2022-09-02T07:17:21.785Z,2.30
2022-09-02T07:22:23.290Z,2.73
2022-09-02T07:27:24.864Z,2.30
2022-09-02T07:32:26.539Z,2.60
2022-09-02T07:37:28.533Z,2.40
2022-09-02T07:42:30.061Z,2.43
2022-09-02T07:47:32.285Z,2.45
2022-09-02T07:52:34.579Z,2.47
2022-09-02T07:57:36.802Z,2.37
2022-09-02T08:02:38.376Z,2.13
2022-09-02T08:07:39.901Z,9.48
2022-09-02T08:12:41.849Z,2.60
2022-09-02T08:17:44.377Z,2.65
2022-09-02T08:22:50.830Z,2.47
2022-09-02T08:28:01.014Z,2.17
2022-09-02T08:33:02.660Z,2.40
2022-09-02T08:38:04.492Z,2.42
2022-09-02T08:43:17.863Z,2.70
2022-09-02T08:48:21.344Z,2.43
2022-09-02T08:53:23.954Z,2.42
2022-09-02T08:58:28.951Z,2.45
2022-09-02T09:03:45.658Z,2.13
2022-09-02T09:08:52.728Z,2.28
2022-09-02T09:14:11.289Z,1.85
2022-09-02T09:19:16.601Z,2.20
2022-09-02T09:24:22.414Z,2.50
2022-09-02T09:29:23.982Z,2.10
2022-09-02T09:34:46.060Z,2.55
2022-09-02T09:39:47.858Z,2.63
2022-09-02T09:44:49.778Z,1.92
2022-09-02T09:49:52.884Z,2.05
2022-09-02T09:55:06.327Z,2.40
2022-09-02T10:00:19.240Z,1.73
2022-09-02T10:05:27.218Z,1.60
2022-09-02T10:10:30.381Z,2.03
2022-09-02T10:15:38.796Z,1.70
2022-09-02T10:21:14.866Z,1.92
2022-09-02T10:26:27.776Z,1.60
2022-09-02T10:31:46.494Z,1.53
2022-09-02T10:37:07.202Z,1.52
2022-09-02T10:42:16.169Z,1.50
2022-09-02T10:47:31.783Z,1.80
2022-09-02T10:53:05.921Z,1.60
2022-09-02T10:58:19.793Z,1.60
2022-09-02T11:03:27.510Z,1.80
2022-09-02T11:08:38.198Z,1.53
2022-09-02T11:13:57.698Z,1.63
2022-09-02T11:19:02.833Z,1.42
2022-09-02T11:24:11.318Z,1.60
2022-09-02T11:29:31.676Z,1.70
2022-09-02T11:34:47.368Z,1.80
2022-09-02T11:40:33.131Z,1.60
2022-09-02T11:45:39.390Z,1.40
2022-09-02T11:51:02.687Z,1.52
2022-09-02T11:56:04.246Z,1.53
2022-09-02T12:01:15.468Z,1.40
2022-09-02T12:06:19.551Z,1.40
2022-09-02T12:11:35.616Z,1.38
2022-09-02T12:16:40.153Z,1.50
2022-09-02T12:22:01.471Z,1.50
2022-09-02T12:27:05.318Z,1.38
2022-09-02T12:32:08.791Z,1.27
2022-09-02T12:37:30.096Z,1.45
2022-09-02T12:42:33.584Z,1.30
2022-09-02T12:47:58.163Z,1.70
2022-09-02T12:53:18.009Z,1.50
2022-09-02T12:58:23.051Z,1.42
2022-09-02T13:03:34.116Z,1.40
2022-09-02T13:08:47.602Z,1.40
2022-09-02T13:14:08.872Z,1.40
2022-09-02T13:19:16.957Z,1.48
2022-09-02T13:24:37.103Z,1.30
2022-09-02T13:30:01.962Z,1.40
2022-09-02T13:35:07.726Z,1.52
2022-09-02T13:40:26.373Z,2.27
2022-09-02T13:45:29.504Z,1.30
2022-09-02T13:50:31.977Z,1.40
2022-09-02T13:55:34.149Z,1.50
2022-09-02T14:00:40.408Z,1.50
2022-09-02T14:05:47.437Z,1.52
2022-09-02T14:10:51.949Z,1.20
2022-09-02T14:15:53.496Z,1.37
2022-09-02T14:21:04.101Z,1.30
2022-09-02T14:26:07.224Z,1.60
2022-09-02T14:31:09.460Z,1.60
2022-09-02T14:36:13.822Z,1.60
2022-09-02T14:41:18.385Z,2.28
2022-09-02T14:46:49.245Z,1.95
2022-09-02T14:51:52.657Z,1.63
2022-09-02T14:56:54.109Z,1.50
2022-09-02T15:01:59.385Z,1.58
2022-09-02T15:07:01.555Z,1.50
2022-09-02T15:12:03.173Z,1.45
2022-09-02T15:17:07.040Z,1.50
2022-09-02T15:22:08.645Z,1.47
2022-09-02T15:27:11.248Z,1.40
2022-09-02T15:32:13.019Z,1.40
2022-09-02T15:37:14.389Z,1.48
2022-09-02T15:42:18.290Z,1.50
2022-09-02T15:47:19.813Z,1.80
2022-09-02T15:52:22.802Z,1.45
2022-09-02T15:57:24.357Z,2.03
2022-09-02T16:02:25.893Z,1.55
2022-09-02T16:07:28.057Z,1.45
2022-09-02T16:12:30.962Z,1.57
2022-09-02T16:17:32.634Z,1.70
2022-09-02T16:22:34.191Z,1.60
2022-09-02T16:27:55.897Z,1.60
2022-09-02T16:32:57.583Z,1.70
2022-09-02T16:37:59.011Z,1.58
2022-09-02T16:43:00.301Z,1.73
2022-09-02T16:48:01.981Z,1.50
2022-09-02T16:53:03.515Z,1.70
2022-09-02T16:58:05.022Z,1.60
2022-09-02T17:03:07.168Z,1.70
2022-09-02T17:08:09.063Z,1.67
2022-09-02T17:13:10.737Z,1.60
2022-09-02T17:18:12.782Z,1.90
2022-09-02T17:23:14.958Z,1.60
2022-09-02T17:28:16.457Z,1.60
2022-09-02T17:33:18.482Z,1.60
2022-09-02T17:38:22.233Z,6.37
2022-09-02T17:43:27.824Z,1.92
2022-09-02T17:48:41.656Z,1.50
2022-09-02T17:53:46.791Z,1.63
2022-09-02T17:58:58.278Z,1.80
2022-09-02T18:04:05.491Z,1.55
2022-09-02T18:09:11.045Z,1.80
2022-09-02T18:14:22.125Z,1.63
2022-09-02T18:19:33.179Z,1.77
2022-09-02T18:24:41.092Z,2.78
2022-09-02T18:29:48.822Z,2.10
2022-09-02T18:35:01.580Z,3.20
2022-09-02T18:40:27.454Z,2.00
2022-09-02T18:45:31.890Z,2.33
2022-09-02T18:50:49.590Z,2.10
2022-09-02T18:55:53.761Z,2.50
2022-09-02T19:00:57.537Z,2.63
2022-09-02T19:05:58.974Z,2.50
2022-09-02T19:11:08.733Z,2.30
2022-09-02T19:16:10.131Z,2.80
2022-09-02T19:21:13.464Z,2.13
2022-09-02T19:26:16.797Z,2.35
2022-09-02T19:31:22.730Z,2.20
2022-09-02T19:36:26.440Z,2.13
2022-09-02T19:41:33.124Z,2.35
2022-09-02T19:47:15.301Z,2.13
2022-09-02T19:51:56.512Z,2.40
2022-09-02T19:56:57.871Z,2.33
2022-09-02T20:01:59.306Z,2.97
2022-09-02T20:07:01.962Z,2.83
2022-09-02T20:12:03.326Z,2.57
2022-09-02T20:17:13.444Z,3.30
2022-09-02T20:22:15.858Z,2.90
2022-09-02T20:27:17.155Z,4.00
2022-09-02T20:32:38.427Z,3.50
2022-09-02T20:37:50.671Z,3.03
2022-09-02T20:43:04.551Z,3.00
2022-09-02T20:48:10.344Z,3.27
2022-09-02T20:53:11.869Z,3.45
2022-09-02T20:58:31.404Z,3.75
2022-09-02T21:03:40.923Z,3.77
2022-09-02T21:08:56.944Z,4.82
2022-09-02T21:13:58.842Z,3.00
2022-09-02T21:19:08.113Z,2.40
2022-09-02T21:24:28.537Z,2.38
2022-09-02T21:29:33.097Z,2.40
2022-09-02T21:34:40.308Z,2.17
2022-09-02T21:39:44.859Z,2.10
2022-09-02T21:44:46.216Z,2.00
2022-09-02T21:49:53.223Z,2.08
2022-09-02T21:54:54.493Z,1.90
2022-09-02T22:00:04.038Z,2.25
2022-09-02T22:05:17.598Z,2.10
2022-09-02T22:10:18.904Z,2.00
2022-09-02T22:15:39.021Z,1.70
2022-09-02T22:20:44.940Z,1.90
2022-09-02T22:25:48.603Z,1.60
2022-09-02T22:30:54.442Z,1.87
2022-09-02T22:35:58.384Z,1.60
2022-09-02T22:41:20.085Z,1.83
2022-09-02T22:46:46.895Z,2.37
2022-09-02T22:52:14.470Z,2.67
2022-09-02T22:57:28.186Z,2.00
2022-09-02T23:02:45.453Z,2.00
2022-09-02T23:07:46.817Z,2.03
2022-09-02T23:12:51.731Z,2.45
2022-09-02T23:18:03.386Z,2.07
2022-09-02T23:23:22.931Z,2.33
2022-09-02T23:28:37.038Z,1.70
2022-09-02T23:33:49.319Z,1.60
2022-09-02T23:38:56.820Z,2.00
2022-09-02T23:43:58.593Z,2.28
2022-09-02T23:49:15.325Z,1.77
2022-09-02T23:54:16.669Z,1.80
2022-09-02T23:59:17.998Z,2.05
